sensor_id;sensor_type;location;lat;lon;timestamp;temperature;humidity
1878;DHT22;939;51.426;6.972;2024-02-21T03:40:42;9.40;99.90
1878;DHT22;939;51.426;6.972;2024-02-21T03:43:09;9.50;99.90
1878;DHT22;939;51.426;6.972;2024-02-21T03:45:36;9.50;99.90
1878;DHT22;939;51.426;6.972;2024-02-21T03:48:03;9.30;99.90
1878;DHT22;939;51.426;6.972;2024-02-21T03:50:30;9.40;99.90
1878;DHT22;939;51.426;6.972;2024-02-21T03:52:57;9.40;99.90
1878;DHT22;939;51.426;6.972;2024-02-21T03:55:24;9.50;99.90
1878;DHT22;939;51.426;6.972;2024-02-21T03:57:52;9.50;99.90
1878;DHT22;939;51.426;6.972;2024-02-21T04:00:19;9.50;99.90
1878;DHT22;939;51.426;6.972;2024-02-21T04:02:46;9.60;99.90
1878;DHT22;939;51.426;6.972;2024-02-21T04:05:15;9.60;99.90
1878;DHT22;939;51.426;6.972;2024-02-21T04:07:43;9.70;99.90
1878;DHT22;939;51.426;6.972;2024-02-21T04:10:10;9.70;99.90
1878;DHT22;939;51.426;6.972;2024-02-21T04:12:37;9.80;99.90
1878;DHT22;939;51.426;6.972;2024-02-21T04:15:06;9.80;99.90
1878;DHT22;939;51.426;6.972;2024-02-21T04:17:34;9.80;99.90
1878;DHT22;939;51.426;6.972;2024-02-21T04:20:05;9.80;99.90
1878;DHT22;939;51.426;6.972;2024-02-21T04:22:33;9.70;99.90
1878;DHT22;939;51.426;6.972;2024-02-21T04:25:00;9.80;99.90
1878;DHT22;939;51.426;6.972;2024-02-21T04:27:27;9.80;99.90
1878;DHT22;939;51.426;6.972;2024-02-21T04:29:55;9.80;99.90
1878;DHT22;939;51.426;6.972;2024-02-21T04:32:23;9.70;99.90
1878;DHT22;939;51.426;6.972;2024-02-21T04:34:52;9.80;99.90
1878;DHT22;939;51.426;6.972;2024-02-21T04:37:20;9.80;99.90
1878;DHT22;939;51.426;6.972;2024-02-21T04:39:49;9.80;99.90
1878;DHT22;939;51.426;6.972;2024-02-21T04:42:15;9.80;99.90
1878;DHT22;939;51.426;6.972;2024-02-21T04:44:42;9.70;99.90
1878;DHT22;939;51.426;6.972;2024-02-21T04:47:10;9.60;99.90
1878;DHT22;939;51.426;6.972;2024-02-21T04:49:38;9.50;99.90
1878;DHT22;939;51.426;6.972;2024-02-21T04:52:05;9.60;99.90
1878;DHT22;939;51.426;6.972;2024-02-21T04:54:32;9.60;99.90
1878;DHT22;939;51.426;6.972;2024-02-21T04:57:00;9.50;99.90
1878;DHT22;939;51.426;6.972;2024-02-21T04:59:27;9.60;99.90
1878;DHT22;939;51.426;6.972;2024-02-21T05:01:55;9.70;99.90
1878;DHT22;939;51.426;6.972;2024-02-21T05:04:21;9.60;99.90
1878;DHT22;939;51.426;6.972;2024-02-21T05:06:50;9.70;99.90
1878;DHT22;939;51.426;6.972;2024-02-21T05:09:17;9.60;99.90
1878;DHT22;939;51.426;6.972;2024-02-21T05:11:43;9.60;99.90
1878;DHT22;939;51.426;6.972;2024-02-21T05:14:10;9.70;99.90
1878;DHT22;939;51.426;6.972;2024-02-21T05:16:38;9.80;99.90
1878;DHT22;939;51.426;6.972;2024-02-21T05:19:06;9.90;99.90
1878;DHT22;939;51.426;6.972;2024-02-21T05:21:33;9.70;99.90
1878;DHT22;939;51.426;6.972;2024-02-21T05:24:01;9.60;99.90
1878;DHT22;939;51.426;6.972;2024-02-21T05:26:28;9.60;99.90
1878;DHT22;939;51.426;6.972;2024-02-21T05:28:55;9.60;99.90
1878;DHT22;939;51.426;6.972;2024-02-21T05:31:22;9.50;99.90
1878;DHT22;939;51.426;6.972;2024-02-21T05:33:49;9.60;99.90
1878;DHT22;939;51.426;6.972;2024-02-21T05:36:16;9.70;99.90
1878;DHT22;939;51.426;6.972;2024-02-21T05:38:42;9.70;99.90
1878;DHT22;939;51.426;6.972;2024-02-21T05:41:11;9.50;99.90
1878;DHT22;939;51.426;6.972;2024-02-21T05:43:37;9.60;99.90
1878;DHT22;939;51.426;6.972;2024-02-21T05:46:04;9.60;99.90
1878;DHT22;939;51.426;6.972;2024-02-21T05:48:31;9.70;99.90
1878;DHT22;939;51.426;6.972;2024-02-21T05:50:58;9.70;99.90
1878;DHT22;939;51.426;6.972;2024-02-21T09:03:32;9.90;99.90
1878;DHT22;939;51.426;6.972;2024-02-21T09:05:59;10.10;99.90
1878;DHT22;939;51.426;6.972;2024-02-21T09:08:29;10.10;99.90
1878;DHT22;939;51.426;6.972;2024-02-21T09:11:05;10.20;99.90
1878;DHT22;939;51.426;6.972;2024-02-21T09:13:38;10.00;99.90
1878;DHT22;939;51.426;6.972;2024-02-21T09:16:06;10.10;99.90
1878;DHT22;939;51.426;6.972;2024-02-21T09:18:37;10.10;99.90
1878;DHT22;939;51.426;6.972;2024-02-21T09:21:04;10.20;99.90
1878;DHT22;939;51.426;6.972;2024-02-21T09:23:49;10.30;99.90
1878;DHT22;939;51.426;6.972;2024-02-21T09:26:20;10.40;99.90
1878;DHT22;939;51.426;6.972;2024-02-21T09:28:56;10.30;99.90
1878;DHT22;939;51.426;6.972;2024-02-21T09:31:32;10.30;99.90
1878;DHT22;939;51.426;6.972;2024-02-21T09:34:09;10.20;99.90
1878;DHT22;939;51.426;6.972;2024-02-21T09:36:50;10.30;99.90
1878;DHT22;939;51.426;6.972;2024-02-21T09:39:17;10.30;99.90
1878;DHT22;939;51.426;6.972;2024-02-21T09:41:56;10.30;99.90
1878;DHT22;939;51.426;6.972;2024-02-21T09:44:43;10.30;99.90
1878;DHT22;939;51.426;6.972;2024-02-21T09:47:17;10.50;99.90
1878;DHT22;939;51.426;6.972;2024-02-21T09:49:47;10.40;99.90
1878;DHT22;939;51.426;6.972;2024-02-21T09:52:17;10.40;99.90
1878;DHT22;939;51.426;6.972;2024-02-21T09:54:49;10.60;99.90
1878;DHT22;939;51.426;6.972;2024-02-21T09:57:26;10.60;99.90
1878;DHT22;939;51.426;6.972;2024-02-21T09:59:56;10.60;99.90
1878;DHT22;939;51.426;6.972;2024-02-21T10:02:24;10.60;99.90
1878;DHT22;939;51.426;6.972;2024-02-21T10:04:53;10.60;99.90
1878;DHT22;939;51.426;6.972;2024-02-21T10:07:20;10.60;99.90
1878;DHT22;939;51.426;6.972;2024-02-21T10:09:49;10.40;99.90
1878;DHT22;939;51.426;6.972;2024-02-21T10:12:29;10.30;99.90
1878;DHT22;939;51.426;6.972;2024-02-21T10:15:03;10.40;99.90
1878;DHT22;939;51.426;6.972;2024-02-21T10:17:32;10.50;99.90
1878;DHT22;939;51.426;6.972;2024-02-21T10:20:11;10.40;99.90
1878;DHT22;939;51.426;6.972;2024-02-21T10:22:44;10.40;99.90
1878;DHT22;939;51.426;6.972;2024-02-21T10:25:15;10.40;99.90
1878;DHT22;939;51.426;6.972;2024-02-21T10:30:50;10.30;99.90
1878;DHT22;939;51.426;6.972;2024-02-21T10:33:20;10.40;99.90
1878;DHT22;939;51.426;6.972;2024-02-21T10:35:51;10.30;99.90
1878;DHT22;939;51.426;6.972;2024-02-21T10:38:18;10.40;99.90
1878;DHT22;939;51.426;6.972;2024-02-21T10:40:47;10.30;99.90
1878;DHT22;939;51.426;6.972;2024-02-21T10:43:19;10.30;99.90
1878;DHT22;939;51.426;6.972;2024-02-21T10:45:47;10.40;99.90
1878;DHT22;939;51.426;6.972;2024-02-21T10:48:16;10.40;99.90
1878;DHT22;939;51.426;6.972;2024-02-21T10:50:57;10.40;99.90
1878;DHT22;939;51.426;6.972;2024-02-21T10:53:33;10.50;99.90
1878;DHT22;939;51.426;6.972;2024-02-21T10:56:21;10.60;99.90
1878;DHT22;939;51.426;6.972;2024-02-21T10:58:49;10.70;99.90
1878;DHT22;939;51.426;6.972;2024-02-21T11:01:19;10.80;99.90
1878;DHT22;939;51.426;6.972;2024-02-21T11:03:49;10.80;99.90
1878;DHT22;939;51.426;6.972;2024-02-21T11:06:25;10.80;99.90
1878;DHT22;939;51.426;6.972;2024-02-21T11:09:03;10.80;99.90
1878;DHT22;939;51.426;6.972;2024-02-21T11:11:33;10.80;99.90
1878;DHT22;939;51.426;6.972;2024-02-21T11:14:07;10.90;99.90
1878;DHT22;939;51.426;6.972;2024-02-21T11:16:36;11.10;99.90
1878;DHT22;939;51.426;6.972;2024-02-21T11:19:26;11.00;99.90
1878;DHT22;939;51.426;6.972;2024-02-21T11:21:58;11.10;99.90
1878;DHT22;939;51.426;6.972;2024-02-21T11:24:27;11.10;99.90
1878;DHT22;939;51.426;6.972;2024-02-21T11:26:55;11.20;99.90
1878;DHT22;939;51.426;6.972;2024-02-21T11:29:23;11.20;99.90
1878;DHT22;939;51.426;6.972;2024-02-21T11:31:52;11.10;99.90
1878;DHT22;939;51.426;6.972;2024-02-21T11:34:19;11.20;99.90
1878;DHT22;939;51.426;6.972;2024-02-21T11:36:47;11.30;99.90
1878;DHT22;939;51.426;6.972;2024-02-21T11:39:23;11.20;99.90
1878;DHT22;939;51.426;6.972;2024-02-21T11:42:04;11.30;99.90
1878;DHT22;939;51.426;6.972;2024-02-21T11:44:34;11.40;99.90
1878;DHT22;939;51.426;6.972;2024-02-21T11:47:09;11.30;99.90
1878;DHT22;939;51.426;6.972;2024-02-21T11:49:37;11.30;99.90
1878;DHT22;939;51.426;6.972;2024-02-21T11:52:05;11.20;99.90
1878;DHT22;939;51.426;6.972;2024-02-21T11:54:34;11.10;99.90
1878;DHT22;939;51.426;6.972;2024-02-21T11:57:01;11.10;99.90
1878;DHT22;939;51.426;6.972;2024-02-21T11:59:30;10.90;99.90
1878;DHT22;939;51.426;6.972;2024-02-21T12:02:06;11.00;99.90
1878;DHT22;939;51.426;6.972;2024-02-21T12:04:36;10.90;99.90
1878;DHT22;939;51.426;6.972;2024-02-21T12:07:04;11.00;99.90
1878;DHT22;939;51.426;6.972;2024-02-21T12:09:33;11.10;99.90
1878;DHT22;939;51.426;6.972;2024-02-21T12:12:02;11.10;99.90
1878;DHT22;939;51.426;6.972;2024-02-21T12:14:42;11.20;99.90
1878;DHT22;939;51.426;6.972;2024-02-21T12:17:09;11.10;99.90
1878;DHT22;939;51.426;6.972;2024-02-21T12:19:36;11.10;99.90
1878;DHT22;939;51.426;6.972;2024-02-21T12:22:03;11.20;99.90
1878;DHT22;939;51.426;6.972;2024-02-21T12:24:31;11.30;99.90
1878;DHT22;939;51.426;6.972;2024-02-21T12:27:01;11.20;99.90
1878;DHT22;939;51.426;6.972;2024-02-21T12:29:31;11.10;99.90
1878;DHT22;939;51.426;6.972;2024-02-21T12:31:59;11.20;99.90
1878;DHT22;939;51.426;6.972;2024-02-21T12:34:26;11.20;99.90
1878;DHT22;939;51.426;6.972;2024-02-21T12:37:05;11.20;99.90
1878;DHT22;939;51.426;6.972;2024-02-21T12:39:33;11.20;99.90
1878;DHT22;939;51.426;6.972;2024-02-21T12:42:08;11.20;99.90
1878;DHT22;939;51.426;6.972;2024-02-21T12:44:38;11.20;99.90
1878;DHT22;939;51.426;6.972;2024-02-21T12:47:05;11.30;99.90
1878;DHT22;939;51.426;6.972;2024-02-21T12:49:33;11.30;99.90
1878;DHT22;939;51.426;6.972;2024-02-21T12:52:05;11.30;99.90
1878;DHT22;939;51.426;6.972;2024-02-21T12:54:39;11.30;99.90
1878;DHT22;939;51.426;6.972;2024-02-21T12:57:09;11.50;99.90
1878;DHT22;939;51.426;6.972;2024-02-21T12:59:36;11.50;99.90
1878;DHT22;939;51.426;6.972;2024-02-21T13:02:03;11.80;99.90
1878;DHT22;939;51.426;6.972;2024-02-21T13:04:31;11.80;99.90
1878;DHT22;939;51.426;6.972;2024-02-21T13:06:59;11.80;99.90
1878;DHT22;939;51.426;6.972;2024-02-21T13:09:29;12.00;99.90
1878;DHT22;939;51.426;6.972;2024-02-21T13:11:59;12.10;99.90
1878;DHT22;939;51.426;6.972;2024-02-21T13:14:36;12.20;99.90
1878;DHT22;939;51.426;6.972;2024-02-21T13:17:09;12.20;99.90
1878;DHT22;939;51.426;6.972;2024-02-21T13:19:37;12.20;99.90
1878;DHT22;939;51.426;6.972;2024-02-21T13:22:08;12.10;99.90
1878;DHT22;939;51.426;6.972;2024-02-21T13:24:55;12.10;99.90
1878;DHT22;939;51.426;6.972;2024-02-21T13:27:32;12.00;99.90
1878;DHT22;939;51.426;6.972;2024-02-21T13:30:00;11.90;99.90
1878;DHT22;939;51.426;6.972;2024-02-21T13:32:31;12.10;99.90
1878;DHT22;939;51.426;6.972;2024-02-21T13:35:04;11.90;99.90
1878;DHT22;939;51.426;6.972;2024-02-21T13:37:40;11.90;99.90
1878;DHT22;939;51.426;6.972;2024-02-21T13:40:08;12.00;99.90
1878;DHT22;939;51.426;6.972;2024-02-21T13:42:36;12.00;99.90
1878;DHT22;939;51.426;6.972;2024-02-21T13:45:06;12.00;99.90
1878;DHT22;939;51.426;6.972;2024-02-21T13:47:34;12.10;99.90
1878;DHT22;939;51.426;6.972;2024-02-21T13:50:02;12.00;99.90
1878;DHT22;939;51.426;6.972;2024-02-21T13:52:31;12.10;99.90
1878;DHT22;939;51.426;6.972;2024-02-21T13:54:59;12.10;99.90
1878;DHT22;939;51.426;6.972;2024-02-21T13:57:29;12.00;99.90
1878;DHT22;939;51.426;6.972;2024-02-21T14:00:30;12.00;99.90
1878;DHT22;939;51.426;6.972;2024-02-21T14:03:04;12.00;99.90
1878;DHT22;939;51.426;6.972;2024-02-21T14:05:40;11.80;99.90
1878;DHT22;939;51.426;6.972;2024-02-21T14:08:18;11.90;99.90
1878;DHT22;939;51.426;6.972;2024-02-21T14:10:47;11.80;99.90
1878;DHT22;939;51.426;6.972;2024-02-21T14:13:14;11.80;99.90
1878;DHT22;939;51.426;6.972;2024-02-21T14:15:49;11.80;99.90
1878;DHT22;939;51.426;6.972;2024-02-21T14:18:26;11.80;99.90
1878;DHT22;939;51.426;6.972;2024-02-21T14:20:53;11.80;99.90
1878;DHT22;939;51.426;6.972;2024-02-21T14:23:20;11.70;99.90
1878;DHT22;939;51.426;6.972;2024-02-21T14:25:57;11.80;99.90
1878;DHT22;939;51.426;6.972;2024-02-21T14:28:27;11.90;99.90
1878;DHT22;939;51.426;6.972;2024-02-21T14:31:02;12.00;99.90
1878;DHT22;939;51.426;6.972;2024-02-21T14:33:38;12.20;99.90
1878;DHT22;939;51.426;6.972;2024-02-21T14:36:09;12.10;99.90
1878;DHT22;939;51.426;6.972;2024-02-21T14:38:40;12.10;99.90
1878;DHT22;939;51.426;6.972;2024-02-21T14:41:17;12.10;99.90
1878;DHT22;939;51.426;6.972;2024-02-21T14:43:51;12.10;99.90
1878;DHT22;939;51.426;6.972;2024-02-21T14:46:33;12.10;99.90
1878;DHT22;939;51.426;6.972;2024-02-21T14:49:03;12.10;99.90
1878;DHT22;939;51.426;6.972;2024-02-21T14:51:36;12.10;99.90
1878;DHT22;939;51.426;6.972;2024-02-21T14:54:13;11.90;99.90
1878;DHT22;939;51.426;6.972;2024-02-21T14:56:47;11.90;99.90
1878;DHT22;939;51.426;6.972;2024-02-21T14:59:18;11.70;99.90
1878;DHT22;939;51.426;6.972;2024-02-21T15:05:03;11.60;99.90
1878;DHT22;939;51.426;6.972;2024-02-21T15:07:33;11.30;99.90
1878;DHT22;939;51.426;6.972;2024-02-21T15:10:05;11.30;99.90
1878;DHT22;939;51.426;6.972;2024-02-21T15:12:35;11.40;99.90
1878;DHT22;939;51.426;6.972;2024-02-21T15:15:27;11.40;99.90
1878;DHT22;939;51.426;6.972;2024-02-21T15:18:08;11.50;99.90
1878;DHT22;939;51.426;6.972;2024-02-21T15:20:36;11.50;99.90
1878;DHT22;939;51.426;6.972;2024-02-21T15:23:05;11.50;99.90
1878;DHT22;939;51.426;6.972;2024-02-21T15:25:45;11.40;99.90
1878;DHT22;939;51.426;6.972;2024-02-21T15:28:28;11.30;99.90
1878;DHT22;939;51.426;6.972;2024-02-21T15:31:03;11.40;99.90
1878;DHT22;939;51.426;6.972;2024-02-21T15:33:52;11.40;99.90
1878;DHT22;939;51.426;6.972;2024-02-21T15:36:24;11.40;99.90
1878;DHT22;939;51.426;6.972;2024-02-21T15:38:54;11.40;99.90
1878;DHT22;939;51.426;6.972;2024-02-21T15:41:24;11.30;99.90
1878;DHT22;939;51.426;6.972;2024-02-21T15:43:52;11.30;99.90
1878;DHT22;939;51.426;6.972;2024-02-21T15:46:39;11.20;99.90
1878;DHT22;939;51.426;6.972;2024-02-21T15:49:20;11.20;99.90
1878;DHT22;939;51.426;6.972;2024-02-21T15:52:07;11.20;99.90
1878;DHT22;939;51.426;6.972;2024-02-21T15:54:40;11.20;99.90
1878;DHT22;939;51.426;6.972;2024-02-21T15:57:07;11.20;99.90
1878;DHT22;939;51.426;6.972;2024-02-21T15:59:40;11.10;99.90
